Dallas, TX

2:33 AM CDT on August 31, 2014 (GMT -0500)
West Highland Park | Change Station
CLOSE
Current Station
Personal Weather Station
Location: Dallas, TX
Elevation: 551 ft
Nearby Weather Stations

Elev 551 ft 32.83 °N, 96.82 °W | Updated 38 seconds ago

Partly Cloudy
Partly Cloudy
80.8 °F
Feels Like 85 °F
N
0.0
Wind Variable Wind from NE
Gusts 1.0 mph

Today
High -- | Low -- °F
--% Chance of Precip.
Yesterday
High -- | Low -- °F
Precip. -- in
7:01 AM 7:53 PM
Waxing Crescent, 28% visible
Pressure 29.90 in
Visibility 10.0 miles
Clouds Few 30000 ft
Heat Index 85 °F
Dew Point 71 °F
Humidity 73%
Rainfall 0.00 in
Snow Depth Not available.
UV 0 out of 12
Pollen 9.60 out of 12
Ozone Good
PM2.5 Moderate
Flu Activity Not available.
METAR KDAL 310653Z 16005KT 10SM FEW300 27/21 A2992 RMK AO2 SLP123 T02720206

More Conditions Fewer Conditions

Pressure 29.90 in
Visibility 10.0 miles
Clouds Few 30000 ft
Heat Index 85 °F
Dew Point 71 °F
Humidity 73%
Rainfall 0.00 in
Snow Depth Not available.
UV 0 out of 12
Pollen 9.60 out of 12
Ozone Good
PM2.5 Moderate
Flu Activity Not available.
METAR KDAL 310653Z 16005KT 10SM FEW300 27/21 A2992 RMK AO2 SLP123 T02720206

More Conditions Fewer Conditions

10-Day Weather Forecast

Almanac

Astronomy

Aug. 31, 2014 Rise Set
Actual Time 7:01 AM CDT 7:53 PM CDT
Civil Twilight 6:36 AM CDT 8:18 PM CDT
Nautical Twilight 6:06 AM CDT 8:47 PM CDT
Astronomical Twilight 5:35 AM CDT 9:18 PM CDT
Moon 12:29 PM CDT 11:29 PM CDT
Length of Visible Light 13h 42m
Length of Day
12h 51m
Tomorrow will be 1m 56s shorter.
Waxing Crescent, 28% of the Moon is Illuminated
Today
Waxing Crescent
Sep 2
First Quarter
Sep 8
Full
Sep 15
Last Quarter
Sep 24
New

Today's Extremes

State Highs State Lows

Community

WunderPhotos

Upload Photos

1,748,809 photos uploaded!

Nearby

Air Quality

  Air Quality AQ Index Pollutant
Yesterday Moderate
OZONE
Yesterday Good
PM2.5
Current Moderate
PM2.5
Current Good
OZONE
Sunday Good
OZONE
Sunday Good
PM10
Monday Good
OZONE
Monday Good
PM10
Tuesday Good
OZONE
Tuesday Good
PM10

Snow Depth

Station Depth Elevation
No new snow has been reported.

Earthquake Activity

City Distance Mag. Time & Date
No recent earthquake activity has been reported nearby.
Minimum magnitude displayed is 2.5.

Coastal Water Temperatures

Place Temperature
No Stations Reporting

Nearby Weather Stations